createdAt,value
2024-01-05T00:02:10.282Z,4.57
2024-01-05T00:04:56.550Z,4.67
2024-01-05T00:07:41.638Z,4.70
2024-01-05T00:10:26.658Z,4.58
2024-01-05T00:13:11.861Z,4.57
2024-01-05T00:15:57.266Z,4.61
2024-01-05T00:18:42.375Z,4.64
2024-01-05T00:21:27.695Z,4.68
2024-01-05T00:24:12.515Z,4.59
2024-01-05T00:26:57.703Z,4.55
2024-01-05T00:29:42.637Z,4.65
2024-01-05T00:32:27.830Z,4.73
2024-01-05T00:35:13.032Z,4.85
2024-01-05T00:37:58.056Z,4.86
2024-01-05T00:40:43.310Z,4.82
2024-01-05T00:43:28.365Z,4.74
2024-01-05T00:46:13.670Z,4.73
2024-01-05T00:48:59.058Z,4.64
2024-01-05T00:51:43.894Z,4.61
2024-01-05T00:54:29.023Z,4.65
2024-01-05T00:57:14.095Z,4.70
2024-01-05T00:59:59.337Z,4.78
2024-01-05T01:02:44.380Z,4.84
2024-01-05T01:05:29.692Z,4.82
2024-01-05T01:08:14.763Z,4.78
2024-01-05T01:10:59.936Z,4.71
2024-01-05T01:13:44.928Z,4.68
2024-01-05T01:16:30.028Z,4.60
2024-01-05T01:19:15.472Z,4.65
2024-01-05T01:22:00.299Z,4.77
2024-01-05T01:24:45.500Z,4.86
2024-01-05T01:27:30.609Z,4.83
2024-01-05T01:30:15.604Z,4.76
2024-01-05T01:33:00.767Z,4.74
2024-01-05T01:35:45.730Z,4.78
2024-01-05T01:38:30.873Z,4.90
2024-01-05T01:41:15.832Z,4.95
2024-01-05T01:44:01.180Z,5.13
2024-01-05T01:46:46.084Z,5.10
2024-01-05T01:49:31.530Z,5.15
2024-01-05T01:52:16.474Z,5.10
2024-01-05T01:55:01.476Z,5.07
2024-01-05T01:57:46.717Z,5.18
2024-01-05T02:00:32.024Z,5.21
2024-01-05T02:03:17.126Z,5.29
2024-01-05T02:06:01.927Z,5.21
2024-01-05T02:08:47.077Z,5.04
2024-01-05T02:11:32.106Z,4.95
2024-01-05T02:14:17.290Z,5.07
2024-01-05T02:17:02.447Z,5.12
2024-01-05T02:19:47.489Z,5.06
2024-01-05T02:22:32.529Z,5.16
2024-01-05T02:25:17.590Z,5.14
2024-01-05T02:28:02.682Z,5.16
2024-01-05T02:30:47.815Z,5.09
2024-01-05T02:33:32.922Z,4.95
2024-01-05T02:36:17.988Z,4.88
2024-01-05T02:39:03.168Z,4.96
2024-01-05T02:41:48.370Z,5.01
2024-01-05T02:44:33.377Z,5.05
2024-01-05T02:47:18.553Z,5.08
2024-01-05T02:50:03.628Z,5.17
2024-01-05T02:52:48.820Z,5.14
2024-01-05T02:55:33.928Z,5.06
2024-01-05T02:58:19.099Z,4.91
2024-01-05T03:01:04.462Z,4.82
2024-01-05T03:03:51.546Z,4.72
2024-01-05T03:06:37.154Z,4.63
2024-01-05T03:09:22.038Z,4.56
2024-01-05T03:12:07.184Z,4.49
2024-01-05T03:14:52.298Z,4.55
2024-01-05T03:17:37.203Z,4.56
2024-01-05T03:20:22.222Z,4.52
2024-01-05T03:23:07.300Z,4.39
2024-01-05T03:25:52.818Z,4.28
2024-01-05T03:28:38.044Z,4.39
2024-01-05T03:31:23.297Z,4.55
2024-01-05T03:34:08.517Z,4.55
2024-01-05T03:36:53.460Z,4.52
2024-01-05T03:39:38.771Z,4.50
2024-01-05T03:42:23.713Z,4.59
2024-01-05T03:45:08.906Z,4.57
2024-01-05T03:47:54.039Z,4.57
2024-01-05T03:50:39.004Z,4.60
2024-01-05T03:53:24.216Z,4.83
2024-01-05T03:56:09.324Z,4.92
2024-01-05T03:58:54.579Z,5.02
2024-01-05T04:01:39.653Z,5.08
2024-01-05T04:04:24.918Z,5.13
2024-01-05T04:07:09.811Z,5.10
2024-01-05T04:09:54.968Z,5.04
2024-01-05T04:12:40.182Z,5.08
2024-01-05T04:15:25.165Z,5.02
2024-01-05T04:18:10.458Z,5.02
2024-01-05T04:20:55.283Z,5.09
2024-01-05T04:23:40.396Z,5.03
2024-01-05T04:26:25.395Z,5.00
2024-01-05T04:29:10.530Z,5.05
2024-01-05T04:31:55.722Z,5.07
2024-01-05T04:34:40.941Z,5.12
2024-01-05T04:37:25.865Z,5.09
2024-01-05T04:40:10.914Z,5.20
2024-01-05T04:42:55.973Z,5.35
2024-01-05T04:45:41.113Z,5.39
2024-01-05T04:48:26.250Z,5.41
2024-01-05T04:51:11.349Z,5.40
2024-01-05T04:53:56.479Z,5.47
2024-01-05T04:56:41.600Z,5.47
2024-01-05T04:59:26.655Z,5.36
2024-01-05T05:02:11.686Z,5.42
2024-01-05T05:04:56.907Z,5.36
2024-01-05T05:07:42.028Z,5.29
2024-01-05T05:10:27.235Z,5.24
2024-01-05T05:13:12.420Z,5.24
2024-01-05T05:15:57.696Z,5.23
2024-01-05T05:18:42.798Z,5.26
2024-01-05T05:21:27.944Z,5.30
2024-01-05T05:24:13.098Z,5.43
2024-01-05T05:26:57.844Z,5.47
2024-01-05T05:29:42.884Z,5.50
2024-01-05T05:32:28.011Z,5.46
2024-01-05T05:35:13.194Z,5.36
2024-01-05T05:37:58.230Z,5.43
2024-01-05T05:40:43.388Z,5.47
2024-01-05T05:43:28.495Z,5.50
2024-01-05T05:46:13.616Z,5.47
2024-01-05T05:48:58.833Z,5.40
2024-01-05T05:51:43.884Z,5.35
2024-01-05T05:54:28.975Z,5.32
2024-01-05T05:57:14.122Z,5.24
2024-01-05T05:59:59.296Z,5.27
2024-01-05T06:02:44.342Z,5.36
2024-01-05T06:05:29.477Z,5.44
2024-01-05T06:08:14.496Z,5.41
2024-01-05T06:10:59.645Z,5.31
2024-01-05T06:13:44.848Z,5.39
2024-01-05T06:16:29.889Z,5.48
2024-01-05T06:19:15.145Z,5.48
2024-01-05T06:22:00.202Z,5.43
2024-01-05T06:24:45.274Z,5.42
2024-01-05T06:27:38.353Z,5.45
2024-01-05T06:30:24.464Z,5.46
2024-01-05T06:33:09.437Z,5.46
2024-01-05T06:35:54.443Z,5.52
2024-01-05T06:38:39.376Z,5.54
2024-01-05T06:41:24.781Z,5.66
2024-01-05T06:44:09.741Z,5.68
2024-01-05T06:46:54.887Z,5.72
2024-01-05T06:49:40.050Z,5.73
2024-01-05T06:52:25.146Z,5.67
2024-01-05T06:55:10.354Z,5.62
2024-01-05T06:57:55.310Z,5.69
2024-01-05T07:00:40.577Z,5.74
2024-01-05T07:03:25.408Z,5.72
2024-01-05T07:06:10.575Z,5.79
2024-01-05T07:08:55.565Z,5.89
2024-01-05T07:11:40.546Z,5.99
2024-01-05T07:14:25.519Z,6.04
2024-01-05T07:17:10.617Z,6.06
2024-01-05T07:19:55.767Z,6.10
2024-01-05T07:22:40.755Z,6.12
2024-01-05T07:25:26.068Z,6.03
2024-01-05T07:28:10.975Z,5.89
2024-01-05T07:30:56.261Z,5.80
2024-01-05T07:33:41.284Z,5.78
2024-01-05T07:36:26.381Z,5.82
2024-01-05T07:39:11.726Z,5.87
2024-01-05T07:41:56.783Z,5.92
2024-01-05T07:44:41.883Z,5.92
2024-01-05T07:47:26.906Z,5.93
2024-01-05T07:50:11.955Z,5.97
2024-01-05T07:52:56.944Z,6.07
2024-01-05T07:55:42.071Z,6.14
2024-01-05T07:58:27.181Z,6.17
2024-01-05T08:01:12.343Z,6.20
2024-01-05T08:03:57.516Z,6.22
2024-01-05T08:06:42.441Z,6.26
2024-01-05T08:09:27.444Z,6.26
2024-01-05T08:12:13.256Z,6.26
2024-01-05T08:14:59.398Z,6.31
2024-01-05T08:17:44.497Z,6.41
2024-01-05T08:20:31.740Z,6.52
2024-01-05T08:23:18.156Z,6.70
2024-01-05T08:26:03.277Z,6.74
2024-01-05T08:28:48.205Z,6.72
2024-01-05T08:31:33.373Z,6.65
2024-01-05T08:34:18.550Z,6.60
2024-01-05T08:37:04.070Z,6.56
2024-01-05T08:39:49.022Z,6.51
2024-01-05T08:42:34.232Z,6.46
2024-01-05T08:45:19.357Z,6.36
2024-01-05T08:48:04.719Z,6.32
2024-01-05T08:50:50.226Z,6.27
2024-01-05T08:53:35.244Z,6.26
2024-01-05T08:56:20.302Z,6.28
2024-01-05T08:59:05.484Z,6.26
2024-01-05T09:01:50.552Z,6.30
2024-01-05T09:04:35.810Z,6.38
2024-01-05T09:07:20.817Z,6.54
2024-01-05T09:10:05.847Z,6.57
2024-01-05T09:12:50.944Z,6.56
2024-01-05T09:15:36.180Z,6.48
2024-01-05T09:18:21.344Z,6.46
2024-01-05T09:21:06.295Z,6.40
2024-01-05T09:23:51.363Z,6.30
2024-01-05T09:26:36.351Z,6.26
2024-01-05T09:29:21.447Z,6.26
2024-01-05T09:32:06.347Z,6.25
2024-01-05T09:34:51.526Z,6.37
2024-01-05T09:37:36.555Z,6.46
2024-01-05T09:40:21.770Z,6.51
2024-01-05T09:43:06.795Z,6.53
2024-01-05T09:45:51.898Z,6.57
2024-01-05T09:48:43.296Z,6.60
2024-01-05T09:51:33.282Z,6.61
2024-01-05T09:54:18.443Z,6.61
2024-01-05T09:57:03.438Z,6.69
2024-01-05T09:59:48.554Z,6.71
2024-01-05T10:02:33.534Z,6.63
2024-01-05T10:05:18.544Z,6.60
2024-01-05T10:08:03.605Z,6.51
2024-01-05T10:10:48.618Z,6.37
2024-01-05T10:13:33.669Z,6.25
2024-01-05T10:16:18.854Z,6.13
2024-01-05T10:19:04.054Z,6.07
2024-01-05T10:21:49.233Z,6.09
2024-01-05T10:24:34.497Z,6.12
2024-01-05T10:27:19.628Z,6.26
2024-01-05T10:30:04.677Z,6.38
2024-01-05T10:32:49.682Z,6.52
2024-01-05T10:35:34.847Z,6.45
2024-01-05T10:38:19.964Z,6.39
2024-01-05T10:41:05.240Z,6.39
2024-01-05T10:43:50.326Z,6.45
2024-01-05T10:46:35.384Z,6.57
2024-01-05T10:49:20.570Z,6.80
2024-01-05T10:52:05.417Z,6.92
2024-01-05T10:54:50.580Z,6.83
2024-01-05T10:57:35.718Z,6.86
2024-01-05T11:00:20.823Z,6.82
2024-01-05T11:03:05.934Z,6.76
2024-01-05T11:05:51.004Z,6.53
2024-01-05T11:08:36.019Z,6.53
2024-01-05T11:11:20.947Z,6.55
2024-01-05T11:14:06.175Z,6.63
2024-01-05T11:16:51.060Z,6.67
2024-01-05T11:19:36.305Z,6.80
2024-01-05T11:22:22.503Z,6.91
2024-01-05T11:25:07.474Z,6.93
2024-01-05T11:27:52.600Z,6.98
2024-01-05T11:30:37.567Z,6.99
2024-01-05T11:33:29.923Z,6.96
2024-01-05T11:36:20.724Z,6.47
2024-01-05T11:39:05.917Z,6.36
2024-01-05T11:41:50.906Z,6.24
2024-01-05T11:44:36.006Z,6.20
2024-01-05T11:47:21.196Z,6.04
2024-01-05T11:50:06.244Z,5.88
2024-01-05T11:52:51.206Z,5.95
2024-01-05T11:55:36.261Z,5.97
2024-01-05T11:58:21.442Z,6.06
2024-01-05T12:01:06.596Z,6.19
2024-01-05T12:03:51.772Z,6.29
2024-01-05T12:06:36.975Z,6.43
2024-01-05T12:09:22.153Z,6.49
2024-01-05T12:12:07.349Z,6.59
2024-01-05T12:14:52.459Z,6.74
2024-01-05T12:17:38.770Z,6.71
2024-01-05T12:20:25.075Z,6.46
2024-01-05T12:23:09.819Z,6.54
2024-01-05T12:25:55.021Z,6.41
2024-01-05T12:28:40.006Z,6.37
2024-01-05T12:31:25.426Z,6.41
2024-01-05T12:34:10.602Z,6.48
2024-01-05T12:36:55.837Z,6.52
2024-01-05T12:39:40.793Z,6.58
2024-01-05T12:42:26.097Z,6.68
2024-01-05T12:45:11.256Z,6.63
2024-01-05T12:47:56.229Z,6.55
2024-01-05T12:50:41.255Z,6.11
2024-01-05T12:53:26.180Z,5.82
2024-01-05T12:56:11.227Z,5.61
2024-01-05T12:58:56.242Z,5.55
2024-01-05T13:01:41.550Z,5.60
2024-01-05T13:04:26.701Z,5.57
2024-01-05T13:07:12.563Z,5.60
2024-01-05T13:09:58.114Z,5.72
2024-01-05T13:12:43.185Z,5.77
2024-01-05T13:15:28.233Z,5.85
2024-01-05T13:18:13.438Z,5.94
2024-01-05T13:20:58.506Z,6.05
2024-01-05T13:23:43.911Z,6.08
2024-01-05T13:26:29.262Z,6.05
2024-01-05T13:29:14.403Z,6.10
2024-01-05T13:31:59.473Z,5.95
2024-01-05T13:34:44.739Z,5.94
2024-01-05T13:37:29.984Z,5.95
2024-01-05T13:40:15.099Z,5.84
2024-01-05T13:43:00.314Z,5.80
2024-01-05T13:45:45.308Z,5.77
2024-01-05T13:48:30.430Z,5.78
2024-01-05T13:51:15.374Z,5.77
2024-01-05T13:54:00.639Z,5.75
2024-01-05T13:56:45.653Z,5.76
2024-01-05T13:59:30.698Z,5.67
2024-01-05T14:02:15.837Z,5.66
2024-01-05T14:05:00.935Z,5.59
2024-01-05T14:07:46.126Z,5.59
2024-01-05T14:10:31.178Z,5.62
2024-01-05T14:13:16.277Z,5.66
2024-01-05T14:16:01.468Z,5.68
2024-01-05T14:18:46.365Z,5.69
2024-01-05T14:21:31.448Z,5.70
2024-01-05T14:24:16.554Z,5.67
2024-01-05T14:27:01.666Z,5.56
2024-01-05T14:29:46.722Z,5.58
2024-01-05T14:32:31.960Z,5.49
2024-01-05T14:35:17.093Z,5.48
2024-01-05T14:38:02.125Z,5.51
2024-01-05T14:40:47.173Z,5.52
2024-01-05T14:43:32.266Z,5.53
2024-01-05T14:46:17.460Z,5.38
2024-01-05T14:49:02.567Z,5.30
2024-01-05T14:51:47.580Z,5.15
2024-01-05T14:54:32.709Z,4.97
2024-01-05T14:57:17.890Z,4.81
2024-01-05T15:00:03.008Z,4.76
2024-01-05T15:02:47.982Z,4.59
2024-01-05T15:05:33.376Z,4.51
2024-01-05T15:08:18.377Z,4.52
2024-01-05T15:11:03.524Z,4.57
2024-01-05T15:13:48.600Z,4.70
2024-01-05T15:16:33.605Z,4.79
2024-01-05T15:19:18.792Z,4.87
2024-01-05T15:22:04.156Z,4.94
2024-01-05T15:24:49.364Z,4.98
2024-01-05T15:27:34.473Z,5.02
2024-01-05T15:30:19.668Z,5.02
2024-01-05T15:33:04.747Z,5.06
2024-01-05T15:35:49.819Z,5.07
2024-01-05T15:38:34.906Z,5.03
2024-01-05T15:41:19.888Z,5.03
2024-01-05T15:44:05.068Z,5.01
2024-01-05T15:46:50.113Z,4.98
2024-01-05T15:49:35.431Z,4.97
2024-01-05T15:52:20.344Z,4.95
2024-01-05T15:55:05.559Z,4.91
2024-01-05T15:57:50.656Z,4.88
2024-01-05T16:00:35.727Z,4.82
2024-01-05T16:03:20.980Z,4.75
2024-01-05T16:06:05.839Z,4.76
2024-01-05T16:08:50.913Z,4.79
2024-01-05T16:11:36.065Z,4.76
2024-01-05T16:14:21.085Z,4.76
2024-01-05T16:17:06.175Z,4.70
2024-01-05T16:19:51.563Z,4.67
2024-01-05T16:22:36.605Z,4.67
2024-01-05T16:25:21.767Z,4.66
2024-01-05T16:28:06.906Z,4.57
2024-01-05T16:30:52.012Z,4.54
2024-01-05T16:33:37.173Z,4.55
2024-01-05T16:36:22.425Z,4.52
2024-01-05T16:39:07.656Z,4.42
2024-01-05T16:41:52.728Z,4.40
2024-01-05T16:44:37.682Z,4.42
2024-01-05T16:47:22.789Z,4.38
2024-01-05T16:50:07.823Z,4.40
2024-01-05T16:52:53.052Z,4.34
2024-01-05T16:55:38.041Z,4.33
2024-01-05T16:58:23.195Z,4.33
2024-01-05T17:01:08.397Z,4.30
2024-01-05T17:03:53.447Z,4.28
2024-01-05T17:06:38.581Z,4.24
2024-01-05T17:09:23.844Z,4.16
2024-01-05T17:12:08.936Z,4.25
2024-01-05T17:14:53.955Z,4.28
2024-01-05T17:17:39.286Z,4.27
2024-01-05T17:20:25.723Z,4.24
2024-01-05T17:23:11.393Z,4.26
2024-01-05T17:25:56.552Z,4.26
2024-01-05T17:28:41.565Z,4.25
2024-01-05T17:31:26.882Z,4.25
2024-01-05T17:34:11.904Z,4.23
2024-01-05T17:36:56.722Z,4.22
2024-01-05T17:39:41.883Z,4.19
2024-01-05T17:42:27.965Z,4.02
2024-01-05T17:45:12.751Z,3.88
2024-01-05T17:47:57.832Z,3.92
2024-01-05T17:50:42.869Z,3.92
2024-01-05T17:53:27.825Z,3.94
2024-01-05T17:56:13.029Z,3.96
2024-01-05T17:58:58.228Z,3.95
2024-01-05T18:01:43.359Z,3.96
2024-01-05T18:04:30.361Z,3.95
2024-01-05T18:07:15.716Z,4.01
2024-01-05T18:10:00.801Z,3.99
2024-01-05T18:12:46.011Z,4.01
2024-01-05T18:15:31.036Z,4.01
2024-01-05T18:18:16.443Z,4.00
2024-01-05T18:21:01.294Z,4.02
2024-01-05T18:23:46.340Z,4.00
2024-01-05T18:26:31.379Z,3.96
2024-01-05T18:29:22.105Z,3.99
2024-01-05T18:32:13.046Z,4.02
2024-01-05T18:34:58.391Z,4.02
2024-01-05T18:37:43.217Z,4.05
2024-01-05T18:40:28.466Z,4.08
2024-01-05T18:43:13.482Z,4.11
2024-01-05T18:45:58.509Z,4.10
2024-01-05T18:48:43.832Z,4.11
2024-01-05T18:51:28.924Z,4.10
2024-01-05T18:54:13.950Z,4.09
2024-01-05T18:56:58.958Z,4.12
2024-01-05T18:59:44.253Z,4.10
2024-01-05T19:02:29.306Z,4.11
2024-01-05T19:05:14.509Z,4.05
2024-01-05T19:07:59.617Z,4.10
2024-01-05T19:10:44.653Z,4.08
2024-01-05T19:13:29.929Z,3.88
2024-01-05T19:16:15.129Z,3.79
2024-01-05T19:19:00.514Z,3.89
2024-01-05T19:21:53.130Z,3.90
2024-01-05T19:24:41.925Z,3.91
2024-01-05T19:27:26.998Z,3.89
2024-01-05T19:30:12.249Z,3.75
2024-01-05T19:32:57.308Z,3.56
2024-01-05T19:35:42.385Z,3.48
2024-01-05T19:38:27.568Z,3.41
2024-01-05T19:41:12.547Z,3.48
2024-01-05T19:43:57.689Z,3.54
2024-01-05T19:46:42.757Z,3.60
2024-01-05T19:49:28.111Z,3.62
2024-01-05T19:52:12.973Z,3.72
2024-01-05T19:54:58.199Z,3.76
2024-01-05T19:57:43.377Z,3.70
2024-01-05T20:00:28.425Z,3.73
2024-01-05T20:03:13.729Z,3.69
2024-01-05T20:05:59.088Z,3.62
2024-01-05T20:08:44.885Z,3.57
2024-01-05T20:11:29.885Z,3.52
2024-01-05T20:14:14.940Z,3.65
2024-01-05T20:17:00.158Z,3.70
2024-01-05T20:19:45.240Z,3.73
2024-01-05T20:22:30.178Z,3.74
2024-01-05T20:25:15.185Z,3.77
2024-01-05T20:28:00.328Z,3.76
2024-01-05T20:30:45.314Z,3.78
2024-01-05T20:33:30.614Z,3.78
2024-01-05T20:36:15.658Z,3.78
2024-01-05T20:39:01.170Z,3.79
2024-01-05T20:41:46.488Z,3.75
2024-01-05T20:44:31.489Z,3.71
2024-01-05T20:47:16.681Z,3.65
2024-01-05T20:50:01.972Z,3.55
2024-01-05T20:52:46.990Z,3.45
2024-01-05T20:55:32.168Z,3.41
2024-01-05T20:58:17.207Z,3.35
2024-01-05T21:01:02.420Z,3.27
2024-01-05T21:03:47.492Z,3.20
2024-01-05T21:06:32.728Z,3.13
2024-01-05T21:09:17.745Z,3.01
2024-01-05T21:12:02.911Z,2.98
2024-01-05T21:14:48.206Z,3.02
2024-01-05T21:17:33.429Z,3.11
2024-01-05T21:20:18.327Z,3.17
2024-01-05T21:23:03.322Z,3.25
2024-01-05T21:25:48.472Z,3.35
2024-01-05T21:28:33.688Z,3.40
2024-01-05T21:31:18.996Z,3.45
2024-01-05T21:34:04.175Z,3.49
2024-01-05T21:36:49.109Z,3.49
2024-01-05T21:39:34.387Z,3.49
2024-01-05T21:42:19.427Z,3.55
2024-01-05T21:45:04.574Z,3.55
2024-01-05T21:47:49.673Z,3.57
2024-01-05T21:50:34.735Z,3.54
2024-01-05T21:53:19.800Z,3.40
2024-01-05T21:56:04.859Z,3.29
2024-01-05T21:58:49.817Z,3.22
2024-01-05T22:01:34.921Z,3.21
2024-01-05T22:04:20.262Z,3.24
2024-01-05T22:07:05.238Z,3.28
2024-01-05T22:09:50.365Z,3.33
2024-01-05T22:12:35.347Z,3.38
2024-01-05T22:15:20.510Z,3.43
2024-01-05T22:18:05.856Z,3.47
2024-01-05T22:20:50.879Z,3.46
2024-01-05T22:23:38.988Z,3.48
2024-01-05T22:26:25.367Z,3.49
2024-01-05T22:29:10.076Z,3.43
2024-01-05T22:31:55.370Z,3.33
2024-01-05T22:34:40.425Z,3.20
2024-01-05T22:37:25.544Z,3.17
2024-01-05T22:40:10.650Z,3.20
2024-01-05T22:42:55.733Z,3.29
2024-01-05T22:45:40.888Z,3.35
2024-01-05T22:48:33.052Z,3.24
2024-01-05T22:51:21.121Z,3.10
2024-01-05T22:54:06.269Z,3.03
2024-01-05T22:56:51.362Z,3.09
2024-01-05T22:59:36.531Z,3.10
2024-01-05T23:02:21.611Z,3.16
2024-01-05T23:05:06.693Z,3.21
2024-01-05T23:07:51.867Z,3.25
2024-01-05T23:10:36.922Z,3.24
2024-01-05T23:13:22.214Z,3.27
2024-01-05T23:16:07.170Z,3.28
2024-01-05T23:18:52.379Z,3.31
2024-01-05T23:21:37.517Z,3.34
2024-01-05T23:24:22.623Z,3.34
2024-01-05T23:27:07.817Z,3.35
2024-01-05T23:29:52.669Z,3.38
2024-01-05T23:32:37.916Z,3.34
2024-01-05T23:35:23.020Z,3.33
2024-01-05T23:38:08.134Z,3.32
2024-01-05T23:40:53.337Z,3.37
2024-01-05T23:43:38.503Z,3.36
2024-01-05T23:46:23.658Z,3.32
2024-01-05T23:49:08.856Z,3.27
2024-01-05T23:51:53.987Z,3.20
2024-01-05T23:54:38.852Z,3.15
2024-01-05T23:57:24.025Z,3.06
